Soaring Guidance
Issued by NWS Reno, NV

Home | Current Version | Previous Version | Text Only | Print | Product List | Glossary On
Versions: 1 2 3 4 5 6 7 8 9 10 11 12 13 14
000
UXUS97 KREV 311401
SRGREV

SOARING FORECAST
NATIONAL WEATHER SERVICE - RENO NV
700 AM PDT MON AUG 31 2015

THIS SOARING FORECAST IS FOR THE EASTERN SIERRA AND WESTERN NEVADA
WITH SPECIFIC INDICES FOR THE GREATER RENO AREA.

THIS FORECAST IS PREPARED DAILY BY 700 AM AND IS NOT UPDATED.

FOR CURRENT FLIGHT CONDITIONS...FORECASTS...AND ADVISORIES...ACCESS
YOUR LOCAL BRIEFING OUTLET OR FLIGHT SERVICE STATION.

*******************************************************************
FORECASTED LOCAL INDICES FOR RENO:        TODAY     YESTERDAY
FORECASTED MAX TEMP AT RENO (DEG F).....     89          85
FORECASTED TRIGGER TEMPERATURE (DEG F)..     73          67
   EXCEEDED YESTERDAY BY 955 AM PDT
FORECASTED MAXIMUM ALTITUDE (FT MSL)....  14800       12900
FORECASTED SOARING INDEX (FPM)..........    774         597
FORECASTED K-INDEX.........VALID 18Z....     -4           3
FORECASTED K-INDEX.........VALID 00Z....     -5          10
FORECASTED LIFTED INDEX....VALID 18Z....     14           5
FORECASTED LIFTED INDEX....VALID 00Z....     10           6

AFTERNOON WINDS ALOFT FORECAST
MSL (FT) WIND/TEMP
9000  2806/+16
10000 2606/+13
12000 2607/+07
14000 2608/+02
16000 2609/-02
18000 2712/-06
24000 2717/-20
30000 2612/-37
34000 2608/-46
39000 2708/-57

SLIDE MOUNTAIN DATA:
     DATE       TIME     TEMP  DEWPT   RH         WIND (MPH)
                        (F)   (F)           | DIR  SPEED GUST
2015-08-31    05:50      47    24     36    | 142   14   21
2015-08-31    05:30      47    25     38    | 142   15   23
2015-08-31    05:20      47    25     39    | 147   16   22
2015-08-31    05:00      47    27     43    | 148   17   23

RENO TAF FORECAST:
KRNO 311120Z 3112/0112 VRB03KT P6SM SKC
     FM312200 31010KT P6SM SKC
     FM010400 VRB04KT P6SM SKC

CARSON CITY TAF FORECAST:
KCXP 311120Z 3112/0112 VRB04KT P6SM SKC
     FM312100 28010KT P6SM SKC
     FM010300 VRB03KT P6SM SKC

OUTLOOK FOR THE RENO-CARSON CITY-MINDEN AREA:
.TUESDAY...SUNNY. HIGHS 84 TO 89. LIGHT WINDS BECOMING WEST 10 TO
15 MPH IN THE AFTERNOON.

SUNRISE AND SUNSET
AUGUST 31 2015........SUNRISE   626 AM PDT   SUNSET   732 PM PDT
SEPTEMBER  1 2015.....SUNRISE   627 AM PDT   SUNSET   730 PM PDT


USA.gov is the U.S. government's official web portal to all federal, state and local government web resources and services.